sensor_id;sensor_type;location;lat;lon;timestamp;P1;durP1;ratioP1;P2;durP2;ratioP2
56122;SDS011;42426;46.104;19.656;2023-10-09T00:00:50;6.85;;;2.97;;
56122;SDS011;42426;46.104;19.656;2023-10-09T00:03:20;3.45;;;2.83;;
56122;SDS011;42426;46.104;19.656;2023-10-09T00:05:52;7.57;;;3.35;;
56122;SDS011;42426;46.104;19.656;2023-10-09T00:08:19;4.75;;;3.42;;
56122;SDS011;42426;46.104;19.656;2023-10-09T00:10:56;6.47;;;3.00;;
56122;SDS011;42426;46.104;19.656;2023-10-09T00:13:45;5.97;;;3.00;;
56122;SDS011;42426;46.104;19.656;2023-10-09T00:16:19;5.28;;;2.97;;
56122;SDS011;42426;46.104;19.656;2023-10-09T00:18:58;4.15;;;3.17;;
56122;SDS011;42426;46.104;19.656;2023-10-09T00:21:38;5.35;;;3.53;;
56122;SDS011;42426;46.104;19.656;2023-10-09T00:24:06;6.35;;;3.05;;
56122;SDS011;42426;46.104;19.656;2023-10-09T00:26:38;4.15;;;3.10;;
56122;SDS011;42426;46.104;19.656;2023-10-09T00:29:10;4.30;;;3.25;;
56122;SDS011;42426;46.104;19.656;2023-10-09T00:31:41;6.53;;;3.10;;
56122;SDS011;42426;46.104;19.656;2023-10-09T00:34:15;6.57;;;3.30;;
56122;SDS011;42426;46.104;19.656;2023-10-09T00:36:48;9.20;;;3.50;;
56122;SDS011;42426;46.104;19.656;2023-10-09T00:39:17;4.88;;;3.08;;
56122;SDS011;42426;46.104;19.656;2023-10-09T00:42:19;5.13;;;3.10;;
56122;SDS011;42426;46.104;19.656;2023-10-09T00:44:54;7.13;;;3.65;;
56122;SDS011;42426;46.104;19.656;2023-10-09T00:47:20;4.82;;;3.00;;
56122;SDS011;42426;46.104;19.656;2023-10-09T00:49:52;5.55;;;3.30;;
56122;SDS011;42426;46.104;19.656;2023-10-09T00:52:26;5.32;;;3.10;;
56122;SDS011;42426;46.104;19.656;2023-10-09T00:55:08;5.28;;;3.42;;
56122;SDS011;42426;46.104;19.656;2023-10-09T00:57:40;3.58;;;2.72;;
56122;SDS011;42426;46.104;19.656;2023-10-09T01:00:15;5.90;;;3.22;;
56122;SDS011;42426;46.104;19.656;2023-10-09T01:03:15;3.50;;;3.00;;
56122;SDS011;42426;46.104;19.656;2023-10-09T01:05:41;6.22;;;3.17;;
56122;SDS011;42426;46.104;19.656;2023-10-09T01:08:25;7.17;;;4.17;;
56122;SDS011;42426;46.104;19.656;2023-10-09T01:11:14;9.10;;;3.50;;
56122;SDS011;42426;46.104;19.656;2023-10-09T01:13:46;7.13;;;3.13;;
56122;SDS011;42426;46.104;19.656;2023-10-09T01:16:13;4.13;;;2.80;;
56122;SDS011;42426;46.104;19.656;2023-10-09T01:19:15;6.75;;;3.65;;
56122;SDS011;42426;46.104;19.656;2023-10-09T01:21:53;8.10;;;4.10;;
56122;SDS011;42426;46.104;19.656;2023-10-09T01:24:19;5.40;;;3.25;;
56122;SDS011;42426;46.104;19.656;2023-10-09T01:26:46;5.25;;;3.08;;
56122;SDS011;42426;46.104;19.656;2023-10-09T01:29:15;5.22;;;3.03;;
56122;SDS011;42426;46.104;19.656;2023-10-09T01:31:44;4.70;;;3.13;;
56122;SDS011;42426;46.104;19.656;2023-10-09T01:34:20;5.28;;;2.85;;
56122;SDS011;42426;46.104;19.656;2023-10-09T01:36:49;5.80;;;3.13;;
56122;SDS011;42426;46.104;19.656;2023-10-09T01:39:25;6.63;;;3.40;;
56122;SDS011;42426;46.104;19.656;2023-10-09T01:42:04;5.68;;;3.03;;
56122;SDS011;42426;46.104;19.656;2023-10-09T01:44:34;5.30;;;3.17;;
56122;SDS011;42426;46.104;19.656;2023-10-09T01:47:02;6.25;;;3.05;;
56122;SDS011;42426;46.104;19.656;2023-10-09T01:49:35;3.45;;;2.90;;
56122;SDS011;42426;46.104;19.656;2023-10-09T01:54:39;5.95;;;2.72;;
56122;SDS011;42426;46.104;19.656;2023-10-09T01:57:06;4.15;;;2.78;;
56122;SDS011;42426;46.104;19.656;2023-10-09T01:59:41;5.97;;;2.80;;
56122;SDS011;42426;46.104;19.656;2023-10-09T02:02:14;3.80;;;2.90;;
56122;SDS011;42426;46.104;19.656;2023-10-09T02:07:39;3.85;;;2.90;;
56122;SDS011;42426;46.104;19.656;2023-10-09T02:10:25;3.03;;;2.42;;
56122;SDS011;42426;46.104;19.656;2023-10-09T02:13:04;7.97;;;3.05;;
56122;SDS011;42426;46.104;19.656;2023-10-09T02:15:31;5.40;;;2.92;;
56122;SDS011;42426;46.104;19.656;2023-10-09T02:18:07;4.82;;;3.78;;
56122;SDS011;42426;46.104;19.656;2023-10-09T02:20:44;5.07;;;3.35;;
56122;SDS011;42426;46.104;19.656;2023-10-09T02:23:11;5.60;;;3.92;;
56122;SDS011;42426;46.104;19.656;2023-10-09T02:25:50;5.55;;;3.80;;
56122;SDS011;42426;46.104;19.656;2023-10-09T02:28:21;5.82;;;3.22;;
56122;SDS011;42426;46.104;19.656;2023-10-09T02:30:47;8.43;;;4.25;;
56122;SDS011;42426;46.104;19.656;2023-10-09T02:33:18;4.82;;;3.65;;
56122;SDS011;42426;46.104;19.656;2023-10-09T02:35:52;8.23;;;3.58;;
56122;SDS011;42426;46.104;19.656;2023-10-09T02:38:19;7.30;;;3.28;;
56122;SDS011;42426;46.104;19.656;2023-10-09T02:40:51;6.40;;;3.22;;
56122;SDS011;42426;46.104;19.656;2023-10-09T02:43:29;4.47;;;2.90;;
56122;SDS011;42426;46.104;19.656;2023-10-09T02:46:17;7.47;;;3.58;;
56122;SDS011;42426;46.104;19.656;2023-10-09T02:48:44;6.82;;;2.97;;
56122;SDS011;42426;46.104;19.656;2023-10-09T02:51:15;5.50;;;3.05;;
56122;SDS011;42426;46.104;19.656;2023-10-09T02:53:51;6.22;;;3.20;;
56122;SDS011;42426;46.104;19.656;2023-10-09T02:56:21;7.82;;;3.00;;
56122;SDS011;42426;46.104;19.656;2023-10-09T02:59:01;5.30;;;3.65;;
56122;SDS011;42426;46.104;19.656;2023-10-09T03:01:31;4.65;;;3.15;;
56122;SDS011;42426;46.104;19.656;2023-10-09T03:04:03;3.67;;;2.50;;
56122;SDS011;42426;46.104;19.656;2023-10-09T03:06:31;4.28;;;3.08;;
56122;SDS011;42426;46.104;19.656;2023-10-09T03:08:59;5.53;;;2.72;;
56122;SDS011;42426;46.104;19.656;2023-10-09T03:11:42;4.88;;;3.13;;
56122;SDS011;42426;46.104;19.656;2023-10-09T03:14:13;4.97;;;2.70;;
56122;SDS011;42426;46.104;19.656;2023-10-09T03:16:41;4.07;;;2.90;;
56122;SDS011;42426;46.104;19.656;2023-10-09T03:19:08;4.68;;;2.83;;
56122;SDS011;42426;46.104;19.656;2023-10-09T03:21:36;4.57;;;2.80;;
56122;SDS011;42426;46.104;19.656;2023-10-09T03:24:02;7.22;;;3.13;;
56122;SDS011;42426;46.104;19.656;2023-10-09T03:26:30;7.80;;;2.90;;
56122;SDS011;42426;46.104;19.656;2023-10-09T03:28:56;4.68;;;3.10;;
56122;SDS011;42426;46.104;19.656;2023-10-09T03:31:24;5.05;;;2.60;;
56122;SDS011;42426;46.104;19.656;2023-10-09T03:33:50;4.47;;;2.90;;
56122;SDS011;42426;46.104;19.656;2023-10-09T03:36:16;5.57;;;2.35;;
56122;SDS011;42426;46.104;19.656;2023-10-09T03:38:42;4.80;;;2.75;;
56122;SDS011;42426;46.104;19.656;2023-10-09T03:41:09;6.22;;;2.72;;
56122;SDS011;42426;46.104;19.656;2023-10-09T03:43:37;6.80;;;2.50;;
56122;SDS011;42426;46.104;19.656;2023-10-09T03:46:09;4.57;;;2.60;;
56122;SDS011;42426;46.104;19.656;2023-10-09T03:48:51;4.45;;;2.60;;
56122;SDS011;42426;46.104;19.656;2023-10-09T03:51:17;4.32;;;2.88;;
56122;SDS011;42426;46.104;19.656;2023-10-09T03:53:50;7.57;;;3.03;;
56122;SDS011;42426;46.104;19.656;2023-10-09T03:56:18;7.28;;;2.78;;
56122;SDS011;42426;46.104;19.656;2023-10-09T03:58:46;5.00;;;2.60;;
56122;SDS011;42426;46.104;19.656;2023-10-09T04:01:21;3.97;;;2.75;;
56122;SDS011;42426;46.104;19.656;2023-10-09T04:03:47;3.58;;;2.72;;
56122;SDS011;42426;46.104;19.656;2023-10-09T04:06:13;5.20;;;2.67;;
56122;SDS011;42426;46.104;19.656;2023-10-09T04:08:42;2.67;;;2.20;;
56122;SDS011;42426;46.104;19.656;2023-10-09T04:11:14;6.05;;;2.35;;
56122;SDS011;42426;46.104;19.656;2023-10-09T04:13:47;4.13;;;2.50;;
56122;SDS011;42426;46.104;19.656;2023-10-09T04:16:15;6.00;;;2.70;;
56122;SDS011;42426;46.104;19.656;2023-10-09T04:18:58;5.63;;;2.45;;
56122;SDS011;42426;46.104;19.656;2023-10-09T04:21:25;5.13;;;3.13;;
56122;SDS011;42426;46.104;19.656;2023-10-09T04:24:02;11.10;;;2.80;;
56122;SDS011;42426;46.104;19.656;2023-10-09T04:26:41;5.45;;;2.97;;
56122;SDS011;42426;46.104;19.656;2023-10-09T04:29:11;4.82;;;2.63;;
56122;SDS011;42426;46.104;19.656;2023-10-09T04:31:51;5.90;;;3.15;;
56122;SDS011;42426;46.104;19.656;2023-10-09T04:34:24;4.95;;;3.35;;
56122;SDS011;42426;46.104;19.656;2023-10-09T04:36:57;13.68;;;5.03;;
56122;SDS011;42426;46.104;19.656;2023-10-09T04:39:28;5.38;;;2.97;;
56122;SDS011;42426;46.104;19.656;2023-10-09T04:41:55;6.43;;;3.15;;
56122;SDS011;42426;46.104;19.656;2023-10-09T04:44:40;5.18;;;3.13;;
56122;SDS011;42426;46.104;19.656;2023-10-09T04:47:27;5.38;;;3.58;;
56122;SDS011;42426;46.104;19.656;2023-10-09T04:50:07;5.90;;;3.20;;
56122;SDS011;42426;46.104;19.656;2023-10-09T04:52:39;6.68;;;3.33;;
56122;SDS011;42426;46.104;19.656;2023-10-09T04:55:10;5.50;;;4.30;;
56122;SDS011;42426;46.104;19.656;2023-10-09T04:57:39;8.73;;;3.72;;
56122;SDS011;42426;46.104;19.656;2023-10-09T05:00:07;7.57;;;3.65;;
56122;SDS011;42426;46.104;19.656;2023-10-09T05:02:52;11.00;;;3.75;;
56122;SDS011;42426;46.104;19.656;2023-10-09T05:05:35;7.30;;;4.15;;
56122;SDS011;42426;46.104;19.656;2023-10-09T05:08:08;5.55;;;3.42;;
56122;SDS011;42426;46.104;19.656;2023-10-09T05:10:49;8.50;;;3.40;;
56122;SDS011;42426;46.104;19.656;2023-10-09T05:13:25;8.75;;;3.90;;
56122;SDS011;42426;46.104;19.656;2023-10-09T05:18:54;11.10;;;4.47;;
56122;SDS011;42426;46.104;19.656;2023-10-09T05:21:32;12.52;;;4.78;;
56122;SDS011;42426;46.104;19.656;2023-10-09T05:24:09;8.38;;;4.18;;
56122;SDS011;42426;46.104;19.656;2023-10-09T05:26:47;6.72;;;4.20;;
56122;SDS011;42426;46.104;19.656;2023-10-09T05:29:19;12.02;;;4.80;;
56122;SDS011;42426;46.104;19.656;2023-10-09T05:31:46;10.80;;;5.50;;
56122;SDS011;42426;46.104;19.656;2023-10-09T05:34:21;10.85;;;5.07;;
56122;SDS011;42426;46.104;19.656;2023-10-09T05:37:05;12.60;;;6.07;;
56122;SDS011;42426;46.104;19.656;2023-10-09T05:39:58;7.55;;;4.65;;
56122;SDS011;42426;46.104;19.656;2023-10-09T05:42:28;10.95;;;4.20;;
56122;SDS011;42426;46.104;19.656;2023-10-09T05:45:03;10.40;;;4.68;;
56122;SDS011;42426;46.104;19.656;2023-10-09T05:47:45;13.60;;;5.10;;
56122;SDS011;42426;46.104;19.656;2023-10-09T05:50:44;9.30;;;4.10;;
56122;SDS011;42426;46.104;19.656;2023-10-09T05:53:28;10.30;;;5.35;;
56122;SDS011;42426;46.104;19.656;2023-10-09T05:56:09;9.15;;;4.72;;
56122;SDS011;42426;46.104;19.656;2023-10-09T05:58:54;12.02;;;4.75;;
56122;SDS011;42426;46.104;19.656;2023-10-09T06:01:38;10.68;;;4.45;;
56122;SDS011;42426;46.104;19.656;2023-10-09T06:04:22;6.05;;;3.85;;
56122;SDS011;42426;46.104;19.656;2023-10-09T06:06:59;9.27;;;3.95;;
56122;SDS011;42426;46.104;19.656;2023-10-09T06:09:36;9.10;;;3.70;;
56122;SDS011;42426;46.104;19.656;2023-10-09T06:12:20;10.63;;;3.88;;
56122;SDS011;42426;46.104;19.656;2023-10-09T06:14:58;10.75;;;4.07;;
56122;SDS011;42426;46.104;19.656;2023-10-09T06:17:43;12.63;;;4.97;;
56122;SDS011;42426;46.104;19.656;2023-10-09T06:20:15;9.93;;;3.90;;
56122;SDS011;42426;46.104;19.656;2023-10-09T06:23:04;12.45;;;3.70;;
56122;SDS011;42426;46.104;19.656;2023-10-09T06:25:43;10.68;;;3.38;;
56122;SDS011;42426;46.104;19.656;2023-10-09T06:28:16;13.80;;;5.47;;
56122;SDS011;42426;46.104;19.656;2023-10-09T06:30:58;7.78;;;3.72;;
56122;SDS011;42426;46.104;19.656;2023-10-09T06:33:44;7.88;;;3.05;;
56122;SDS011;42426;46.104;19.656;2023-10-09T06:36:29;5.93;;;2.80;;
56122;SDS011;42426;46.104;19.656;2023-10-09T06:38:56;5.90;;;2.83;;
56122;SDS011;42426;46.104;19.656;2023-10-09T06:41:42;5.80;;;3.33;;
56122;SDS011;42426;46.104;19.656;2023-10-09T06:44:10;8.95;;;2.75;;
56122;SDS011;42426;46.104;19.656;2023-10-09T06:46:56;5.88;;;2.60;;
56122;SDS011;42426;46.104;19.656;2023-10-09T06:49:32;6.15;;;2.55;;
56122;SDS011;42426;46.104;19.656;2023-10-09T06:52:02;11.10;;;2.88;;
56122;SDS011;42426;46.104;19.656;2023-10-09T06:54:40;11.45;;;3.05;;
56122;SDS011;42426;46.104;19.656;2023-10-09T06:57:15;7.63;;;3.00;;
56122;SDS011;42426;46.104;19.656;2023-10-09T07:00:01;9.13;;;2.85;;
56122;SDS011;42426;46.104;19.656;2023-10-09T07:02:50;7.53;;;2.70;;
56122;SDS011;42426;46.104;19.656;2023-10-09T07:05:18;9.13;;;3.05;;
56122;SDS011;42426;46.104;19.656;2023-10-09T07:07:44;9.48;;;3.22;;
56122;SDS011;42426;46.104;19.656;2023-10-09T07:10:20;8.32;;;2.95;;
56122;SDS011;42426;46.104;19.656;2023-10-09T07:12:54;8.30;;;2.90;;
56122;SDS011;42426;46.104;19.656;2023-10-09T07:15:22;5.55;;;3.42;;
56122;SDS011;42426;46.104;19.656;2023-10-09T07:20:44;7.18;;;2.40;;
56122;SDS011;42426;46.104;19.656;2023-10-09T07:23:24;4.50;;;2.42;;
56122;SDS011;42426;46.104;19.656;2023-10-09T07:26:00;5.35;;;2.55;;
56122;SDS011;42426;46.104;19.656;2023-10-09T07:28:42;4.00;;;2.38;;
56122;SDS011;42426;46.104;19.656;2023-10-09T07:31:20;5.18;;;2.55;;
56122;SDS011;42426;46.104;19.656;2023-10-09T07:33:50;5.47;;;2.33;;
56122;SDS011;42426;46.104;19.656;2023-10-09T07:36:22;4.15;;;2.35;;
56122;SDS011;42426;46.104;19.656;2023-10-09T07:39:03;6.38;;;3.13;;
56122;SDS011;42426;46.104;19.656;2023-10-09T07:41:39;6.40;;;2.40;;
56122;SDS011;42426;46.104;19.656;2023-10-09T07:44:10;7.80;;;2.33;;
56122;SDS011;42426;46.104;19.656;2023-10-09T07:46:59;5.45;;;2.40;;
56122;SDS011;42426;46.104;19.656;2023-10-09T07:49:47;4.72;;;2.60;;
56122;SDS011;42426;46.104;19.656;2023-10-09T07:52:17;5.13;;;2.40;;
56122;SDS011;42426;46.104;19.656;2023-10-09T07:54:47;6.50;;;2.60;;
56122;SDS011;42426;46.104;19.656;2023-10-09T07:57:18;4.20;;;2.13;;
56122;SDS011;42426;46.104;19.656;2023-10-09T07:59:51;7.45;;;2.53;;
56122;SDS011;42426;46.104;19.656;2023-10-09T08:02:22;3.65;;;2.53;;
56122;SDS011;42426;46.104;19.656;2023-10-09T08:05:00;8.18;;;2.53;;
56122;SDS011;42426;46.104;19.656;2023-10-09T08:07:43;6.00;;;2.63;;
56122;SDS011;42426;46.104;19.656;2023-10-09T08:10:20;3.30;;;2.20;;
56122;SDS011;42426;46.104;19.656;2023-10-09T08:12:46;3.97;;;2.60;;
56122;SDS011;42426;46.104;19.656;2023-10-09T08:15:12;5.68;;;2.60;;
56122;SDS011;42426;46.104;19.656;2023-10-09T08:20:25;4.78;;;2.80;;
56122;SDS011;42426;46.104;19.656;2023-10-09T08:22:52;2.67;;;2.20;;
56122;SDS011;42426;46.104;19.656;2023-10-09T08:25:20;4.25;;;2.20;;
56122;SDS011;42426;46.104;19.656;2023-10-09T08:28:13;6.85;;;3.00;;
56122;SDS011;42426;46.104;19.656;2023-10-09T08:30:39;4.78;;;2.60;;
56122;SDS011;42426;46.104;19.656;2023-10-09T08:33:14;4.93;;;2.47;;
56122;SDS011;42426;46.104;19.656;2023-10-09T08:35:53;5.10;;;2.20;;
56122;SDS011;42426;46.104;19.656;2023-10-09T08:38:26;4.40;;;2.00;;
56122;SDS011;42426;46.104;19.656;2023-10-09T08:41:05;5.82;;;2.58;;
56122;SDS011;42426;46.104;19.656;2023-10-09T08:43:46;3.05;;;2.10;;
56122;SDS011;42426;46.104;19.656;2023-10-09T08:46:21;6.63;;;2.90;;
56122;SDS011;42426;46.104;19.656;2023-10-09T08:48:48;4.38;;;2.97;;
56122;SDS011;42426;46.104;19.656;2023-10-09T08:51:14;4.95;;;2.50;;
56122;SDS011;42426;46.104;19.656;2023-10-09T08:53:41;5.13;;;2.72;;
56122;SDS011;42426;46.104;19.656;2023-10-09T08:56:11;4.93;;;2.60;;
56122;SDS011;42426;46.104;19.656;2023-10-09T08:58:52;5.25;;;2.22;;
56122;SDS011;42426;46.104;19.656;2023-10-09T09:01:23;7.88;;;2.70;;
56122;SDS011;42426;46.104;19.656;2023-10-09T09:03:50;4.68;;;2.53;;
56122;SDS011;42426;46.104;19.656;2023-10-09T09:06:20;8.75;;;2.97;;
56122;SDS011;42426;46.104;19.656;2023-10-09T09:08:49;6.60;;;2.92;;
56122;SDS011;42426;46.104;19.656;2023-10-09T09:11:20;5.25;;;2.53;;
56122;SDS011;42426;46.104;19.656;2023-10-09T09:16:29;6.18;;;2.47;;
56122;SDS011;42426;46.104;19.656;2023-10-09T09:18:58;5.32;;;2.10;;
56122;SDS011;42426;46.104;19.656;2023-10-09T09:21:26;5.75;;;2.70;;
56122;SDS011;42426;46.104;19.656;2023-10-09T09:23:53;5.28;;;2.63;;
56122;SDS011;42426;46.104;19.656;2023-10-09T09:26:34;6.35;;;3.30;;
56122;SDS011;42426;46.104;19.656;2023-10-09T09:29:10;5.97;;;2.72;;
56122;SDS011;42426;46.104;19.656;2023-10-09T09:31:36;6.10;;;2.90;;
56122;SDS011;42426;46.104;19.656;2023-10-09T09:34:07;5.70;;;3.00;;
56122;SDS011;42426;46.104;19.656;2023-10-09T09:36:49;12.13;;;3.60;;
56122;SDS011;42426;46.104;19.656;2023-10-09T09:39:22;5.38;;;3.38;;
56122;SDS011;42426;46.104;19.656;2023-10-09T09:41:55;6.65;;;3.47;;
56122;SDS011;42426;46.104;19.656;2023-10-09T09:44:22;10.00;;;3.20;;
56122;SDS011;42426;46.104;19.656;2023-10-09T09:46:56;5.60;;;3.28;;
56122;SDS011;42426;46.104;19.656;2023-10-09T09:49:25;5.95;;;3.65;;
56122;SDS011;42426;46.104;19.656;2023-10-09T09:52:05;4.80;;;3.22;;
56122;SDS011;42426;46.104;19.656;2023-10-09T09:54:38;9.23;;;4.00;;
56122;SDS011;42426;46.104;19.656;2023-10-09T09:57:05;8.18;;;3.60;;
56122;SDS011;42426;46.104;19.656;2023-10-09T09:59:39;4.45;;;2.45;;
56122;SDS011;42426;46.104;19.656;2023-10-09T10:02:07;4.10;;;2.70;;
56122;SDS011;42426;46.104;19.656;2023-10-09T10:04:36;3.70;;;2.75;;
56122;SDS011;42426;46.104;19.656;2023-10-09T10:07:06;6.47;;;2.97;;
56122;SDS011;42426;46.104;19.656;2023-10-09T10:09:40;4.93;;;2.95;;
56122;SDS011;42426;46.104;19.656;2023-10-09T10:12:10;5.60;;;4.68;;
56122;SDS011;42426;46.104;19.656;2023-10-09T10:17:48;5.68;;;2.95;;
56122;SDS011;42426;46.104;19.656;2023-10-09T10:20:24;7.60;;;3.08;;
56122;SDS011;42426;46.104;19.656;2023-10-09T10:23:14;3.60;;;2.53;;
56122;SDS011;42426;46.104;19.656;2023-10-09T10:25:43;5.55;;;2.88;;
56122;SDS011;42426;46.104;19.656;2023-10-09T10:31:07;4.05;;;2.83;;
56122;SDS011;42426;46.104;19.656;2023-10-09T10:36:21;4.63;;;2.58;;
56122;SDS011;42426;46.104;19.656;2023-10-09T10:39:04;7.50;;;2.90;;
56122;SDS011;42426;46.104;19.656;2023-10-09T10:42:04;3.58;;;2.53;;
56122;SDS011;42426;46.104;19.656;2023-10-09T10:44:32;4.55;;;3.15;;
56122;SDS011;42426;46.104;19.656;2023-10-09T10:46:58;6.03;;;2.67;;
56122;SDS011;42426;46.104;19.656;2023-10-09T10:49:26;5.10;;;2.97;;
56122;SDS011;42426;46.104;19.656;2023-10-09T10:52:03;19.25;;;5.43;;
56122;SDS011;42426;46.104;19.656;2023-10-09T10:54:42;6.13;;;2.85;;
56122;SDS011;42426;46.104;19.656;2023-10-09T10:57:20;5.82;;;2.58;;
56122;SDS011;42426;46.104;19.656;2023-10-09T11:02:58;5.80;;;2.90;;
56122;SDS011;42426;46.104;19.656;2023-10-09T11:05:41;5.75;;;2.92;;
56122;SDS011;42426;46.104;19.656;2023-10-09T11:08:11;7.32;;;3.30;;
56122;SDS011;42426;46.104;19.656;2023-10-09T11:10:38;5.55;;;2.72;;
56122;SDS011;42426;46.104;19.656;2023-10-09T11:13:24;8.35;;;2.97;;
56122;SDS011;42426;46.104;19.656;2023-10-09T11:16:17;5.63;;;3.38;;
56122;SDS011;42426;46.104;19.656;2023-10-09T11:19:07;3.70;;;2.75;;
56122;SDS011;42426;46.104;19.656;2023-10-09T11:21:55;5.65;;;3.20;;
56122;SDS011;42426;46.104;19.656;2023-10-09T11:24:30;7.43;;;3.20;;
56122;SDS011;42426;46.104;19.656;2023-10-09T11:27:01;8.88;;;3.65;;
56122;SDS011;42426;46.104;19.656;2023-10-09T11:29:34;7.28;;;3.85;;
56122;SDS011;42426;46.104;19.656;2023-10-09T11:32:07;9.10;;;3.10;;
56122;SDS011;42426;46.104;19.656;2023-10-09T11:34:42;7.72;;;2.92;;
56122;SDS011;42426;46.104;19.656;2023-10-09T11:37:17;9.38;;;3.25;;
56122;SDS011;42426;46.104;19.656;2023-10-09T11:40:06;6.65;;;3.70;;
56122;SDS011;42426;46.104;19.656;2023-10-09T11:42:49;5.82;;;3.08;;
56122;SDS011;42426;46.104;19.656;2023-10-09T11:45:22;9.15;;;3.65;;
56122;SDS011;42426;46.104;19.656;2023-10-09T11:47:56;13.43;;;3.33;;
56122;SDS011;42426;46.104;19.656;2023-10-09T11:50:45;9.23;;;3.20;;
56122;SDS011;42426;46.104;19.656;2023-10-09T11:53:21;7.03;;;3.45;;
56122;SDS011;42426;46.104;19.656;2023-10-09T11:55:48;8.93;;;3.72;;
56122;SDS011;42426;46.104;19.656;2023-10-09T11:58:15;7.80;;;3.90;;
56122;SDS011;42426;46.104;19.656;2023-10-09T12:00:53;6.68;;;3.13;;
56122;SDS011;42426;46.104;19.656;2023-10-09T12:03:25;8.98;;;3.35;;
56122;SDS011;42426;46.104;19.656;2023-10-09T12:05:58;8.13;;;4.00;;
56122;SDS011;42426;46.104;19.656;2023-10-09T12:08:37;13.70;;;4.13;;
56122;SDS011;42426;46.104;19.656;2023-10-09T12:11:06;6.40;;;3.20;;
56122;SDS011;42426;46.104;19.656;2023-10-09T12:13:39;5.72;;;3.88;;
56122;SDS011;42426;46.104;19.656;2023-10-09T12:16:07;4.35;;;2.90;;
56122;SDS011;42426;46.104;19.656;2023-10-09T12:18:36;4.07;;;3.20;;
56122;SDS011;42426;46.104;19.656;2023-10-09T12:21:04;5.78;;;3.50;;
56122;SDS011;42426;46.104;19.656;2023-10-09T12:23:31;12.40;;;3.50;;
56122;SDS011;42426;46.104;19.656;2023-10-09T12:26:05;8.02;;;4.63;;
56122;SDS011;42426;46.104;19.656;2023-10-09T12:31:11;10.38;;;3.85;;
56122;SDS011;42426;46.104;19.656;2023-10-09T12:33:41;7.57;;;3.80;;
56122;SDS011;42426;46.104;19.656;2023-10-09T12:36:13;23.60;;;7.03;;
56122;SDS011;42426;46.104;19.656;2023-10-09T12:38:46;14.00;;;4.65;;
56122;SDS011;42426;46.104;19.656;2023-10-09T12:41:19;7.72;;;3.80;;
56122;SDS011;42426;46.104;19.656;2023-10-09T12:43:58;9.30;;;3.38;;
56122;SDS011;42426;46.104;19.656;2023-10-09T12:46:24;5.95;;;3.70;;
56122;SDS011;42426;46.104;19.656;2023-10-09T12:48:57;5.23;;;3.30;;
56122;SDS011;42426;46.104;19.656;2023-10-09T12:51:23;10.98;;;3.50;;
56122;SDS011;42426;46.104;19.656;2023-10-09T12:53:54;11.55;;;3.72;;
56122;SDS011;42426;46.104;19.656;2023-10-09T12:56:24;8.43;;;3.58;;
56122;SDS011;42426;46.104;19.656;2023-10-09T12:59:02;5.13;;;3.30;;
56122;SDS011;42426;46.104;19.656;2023-10-09T13:01:32;8.68;;;3.88;;
56122;SDS011;42426;46.104;19.656;2023-10-09T13:04:07;9.13;;;3.28;;
56122;SDS011;42426;46.104;19.656;2023-10-09T13:06:45;7.50;;;3.50;;
56122;SDS011;42426;46.104;19.656;2023-10-09T13:09:15;11.85;;;3.70;;
56122;SDS011;42426;46.104;19.656;2023-10-09T13:11:49;8.10;;;4.35;;
56122;SDS011;42426;46.104;19.656;2023-10-09T13:14:26;9.25;;;4.10;;
56122;SDS011;42426;46.104;19.656;2023-10-09T13:16:54;8.38;;;4.05;;
56122;SDS011;42426;46.104;19.656;2023-10-09T13:19:21;6.82;;;3.75;;
56122;SDS011;42426;46.104;19.656;2023-10-09T13:21:49;8.10;;;5.03;;
56122;SDS011;42426;46.104;19.656;2023-10-09T13:24:15;16.35;;;5.30;;
56122;SDS011;42426;46.104;19.656;2023-10-09T13:26:41;10.98;;;4.95;;
56122;SDS011;42426;46.104;19.656;2023-10-09T13:29:10;9.50;;;3.80;;
56122;SDS011;42426;46.104;19.656;2023-10-09T13:31:37;4.93;;;3.47;;
56122;SDS011;42426;46.104;19.656;2023-10-09T13:34:06;12.07;;;4.80;;
56122;SDS011;42426;46.104;19.656;2023-10-09T13:36:34;7.30;;;3.88;;
56122;SDS011;42426;46.104;19.656;2023-10-09T13:39:06;7.90;;;3.63;;
56122;SDS011;42426;46.104;19.656;2023-10-09T13:41:55;10.27;;;4.38;;
56122;SDS011;42426;46.104;19.656;2023-10-09T13:44:25;12.00;;;4.78;;
56122;SDS011;42426;46.104;19.656;2023-10-09T13:46:54;8.52;;;4.57;;
56122;SDS011;42426;46.104;19.656;2023-10-09T13:49:22;8.50;;;5.60;;
56122;SDS011;42426;46.104;19.656;2023-10-09T13:51:55;5.80;;;3.60;;
56122;SDS011;42426;46.104;19.656;2023-10-09T13:54:22;7.35;;;4.68;;
56122;SDS011;42426;46.104;19.656;2023-10-09T13:57:00;13.20;;;5.50;;
56122;SDS011;42426;46.104;19.656;2023-10-09T13:59:29;9.20;;;4.80;;
56122;SDS011;42426;46.104;19.656;2023-10-09T14:01:55;8.55;;;4.57;;
56122;SDS011;42426;46.104;19.656;2023-10-09T14:04:24;7.68;;;4.43;;
56122;SDS011;42426;46.104;19.656;2023-10-09T14:06:54;8.82;;;4.15;;
56122;SDS011;42426;46.104;19.656;2023-10-09T14:09:25;7.63;;;4.03;;
56122;SDS011;42426;46.104;19.656;2023-10-09T14:11:59;5.35;;;3.42;;
56122;SDS011;42426;46.104;19.656;2023-10-09T14:14:37;8.10;;;3.83;;
56122;SDS011;42426;46.104;19.656;2023-10-09T14:17:09;7.68;;;3.35;;
56122;SDS011;42426;46.104;19.656;2023-10-09T14:19:39;7.93;;;4.72;;
56122;SDS011;42426;46.104;19.656;2023-10-09T14:22:12;5.47;;;3.60;;
56122;SDS011;42426;46.104;19.656;2023-10-09T14:24:41;9.35;;;3.50;;
56122;SDS011;42426;46.104;19.656;2023-10-09T14:27:10;6.90;;;3.80;;
56122;SDS011;42426;46.104;19.656;2023-10-09T14:29:43;6.57;;;3.97;;
56122;SDS011;42426;46.104;19.656;2023-10-09T14:32:10;5.63;;;3.58;;
56122;SDS011;42426;46.104;19.656;2023-10-09T14:34:38;13.18;;;4.10;;
56122;SDS011;42426;46.104;19.656;2023-10-09T14:37:08;10.48;;;4.75;;
56122;SDS011;42426;46.104;19.656;2023-10-09T14:39:40;7.45;;;4.60;;
56122;SDS011;42426;46.104;19.656;2023-10-09T14:42:07;10.77;;;4.05;;
56122;SDS011;42426;46.104;19.656;2023-10-09T14:44:36;5.57;;;3.70;;
56122;SDS011;42426;46.104;19.656;2023-10-09T14:47:06;6.05;;;3.97;;
56122;SDS011;42426;46.104;19.656;2023-10-09T14:49:33;6.35;;;3.88;;
56122;SDS011;42426;46.104;19.656;2023-10-09T14:52:05;8.30;;;3.85;;
56122;SDS011;42426;46.104;19.656;2023-10-09T14:54:34;10.82;;;4.68;;
56122;SDS011;42426;46.104;19.656;2023-10-09T14:57:00;7.72;;;4.85;;
56122;SDS011;42426;46.104;19.656;2023-10-09T14:59:31;8.55;;;4.53;;
56122;SDS011;42426;46.104;19.656;2023-10-09T15:01:58;10.55;;;4.90;;
56122;SDS011;42426;46.104;19.656;2023-10-09T15:04:24;9.77;;;4.57;;
56122;SDS011;42426;46.104;19.656;2023-10-09T15:06:51;12.45;;;5.47;;
56122;SDS011;42426;46.104;19.656;2023-10-09T15:09:18;17.10;;;5.13;;
56122;SDS011;42426;46.104;19.656;2023-10-09T15:11:47;7.45;;;4.97;;
56122;SDS011;42426;46.104;19.656;2023-10-09T15:14:16;12.23;;;5.80;;
56122;SDS011;42426;46.104;19.656;2023-10-09T15:16:44;11.52;;;5.22;;
56122;SDS011;42426;46.104;19.656;2023-10-09T15:19:12;14.05;;;7.00;;
56122;SDS011;42426;46.104;19.656;2023-10-09T15:21:38;10.45;;;5.93;;
56122;SDS011;42426;46.104;19.656;2023-10-09T15:24:16;10.40;;;5.55;;
56122;SDS011;42426;46.104;19.656;2023-10-09T15:26:47;13.43;;;6.15;;
56122;SDS011;42426;46.104;19.656;2023-10-09T15:29:26;18.77;;;9.05;;
56122;SDS011;42426;46.104;19.656;2023-10-09T15:31:57;13.88;;;6.72;;
56122;SDS011;42426;46.104;19.656;2023-10-09T15:34:30;12.65;;;6.47;;
56122;SDS011;42426;46.104;19.656;2023-10-09T15:36:57;13.75;;;5.70;;
56122;SDS011;42426;46.104;19.656;2023-10-09T15:39:23;15.70;;;6.03;;
56122;SDS011;42426;46.104;19.656;2023-10-09T15:41:49;12.02;;;6.75;;